Allandale, Florida
Current Conditions -  °F | °C
As of 3:53 AM on Thursday 23 Oct 2014 (Local Time) from KDAB Reporting Station
Scattered Clouds Scattered Clouds  
Wind Chill: 68°   Ceiling: Unl
Heat Index: 68°   Visibility: 10mi
Dew Point: 54°   Wind: 12mph
Humidity: 61%   Direction: 30°NNE
Pressure: 29.98"   Gusts: NA
Location:  29.1486°N, 81.0301°W
Report Text: KDAB 230753Z 03010KT 10SM FEW035 SCT150 20/12 A2998 RMK AO2 SLP151 T02000122
Loading
Personal Weather Stations






























Interactive Weather Map
Tropical Storm Tracking
New forecast layout! Learn more

10-Day Weather Forecast

Advertisements
Track Severe Weather on mobile